sensor_id;sensor_type;location;lat;lon;timestamp;temperature;humidity
28552;DHT22;15752;49.560;8.708;2022-12-07T00:01:45;8.80;99.90
28552;DHT22;15752;49.560;8.708;2022-12-07T00:04:16;8.70;99.90
28552;DHT22;15752;49.560;8.708;2022-12-07T00:06:51;8.70;99.90
28552;DHT22;15752;49.560;8.708;2022-12-07T00:09:20;8.70;99.90
28552;DHT22;15752;49.560;8.708;2022-12-07T00:11:51;8.70;99.90
28552;DHT22;15752;49.560;8.708;2022-12-07T00:14:20;8.70;99.90
28552;DHT22;15752;49.560;8.708;2022-12-07T00:16:49;8.70;99.90
28552;DHT22;15752;49.560;8.708;2022-12-07T00:19:18;8.70;99.90
28552;DHT22;15752;49.560;8.708;2022-12-07T00:21:46;8.70;99.90
28552;DHT22;15752;49.560;8.708;2022-12-07T00:24:15;8.70;99.90
28552;DHT22;15752;49.560;8.708;2022-12-07T00:26:43;8.70;99.90
28552;DHT22;15752;49.560;8.708;2022-12-07T00:29:16;8.80;99.90
28552;DHT22;15752;49.560;8.708;2022-12-07T00:31:45;8.80;99.90
28552;DHT22;15752;49.560;8.708;2022-12-07T00:34:16;8.70;99.90
28552;DHT22;15752;49.560;8.708;2022-12-07T00:36:45;8.70;99.90
28552;DHT22;15752;49.560;8.708;2022-12-07T00:39:14;8.70;99.90
28552;DHT22;15752;49.560;8.708;2022-12-07T00:41:43;8.70;99.90
28552;DHT22;15752;49.560;8.708;2022-12-07T00:44:13;8.70;99.90
28552;DHT22;15752;49.560;8.708;2022-12-07T00:46:42;8.70;99.90
28552;DHT22;15752;49.560;8.708;2022-12-07T00:49:12;8.70;99.90
28552;DHT22;15752;49.560;8.708;2022-12-07T00:51:40;8.70;99.90
28552;DHT22;15752;49.560;8.708;2022-12-07T00:54:09;8.70;99.90
28552;DHT22;15752;49.560;8.708;2022-12-07T00:56:37;8.80;99.90
28552;DHT22;15752;49.560;8.708;2022-12-07T00:59:06;8.70;99.90
28552;DHT22;15752;49.560;8.708;2022-12-07T01:01:36;8.80;99.90
28552;DHT22;15752;49.560;8.708;2022-12-07T01:04:05;8.70;99.90
28552;DHT22;15752;49.560;8.708;2022-12-07T01:06:34;8.70;99.90
28552;DHT22;15752;49.560;8.708;2022-12-07T01:09:02;8.70;99.90
28552;DHT22;15752;49.560;8.708;2022-12-07T01:11:32;8.70;99.90
28552;DHT22;15752;49.560;8.708;2022-12-07T01:14:00;8.70;99.90
28552;DHT22;15752;49.560;8.708;2022-12-07T01:16:30;8.60;99.90
28552;DHT22;15752;49.560;8.708;2022-12-07T01:19:02;8.70;99.90
28552;DHT22;15752;49.560;8.708;2022-12-07T01:21:33;8.80;99.90
28552;DHT22;15752;49.560;8.708;2022-12-07T01:24:06;8.60;99.90
28552;DHT22;15752;49.560;8.708;2022-12-07T01:26:36;8.60;99.90
28552;DHT22;15752;49.560;8.708;2022-12-07T01:29:05;8.60;99.90
28552;DHT22;15752;49.560;8.708;2022-12-07T01:31:33;8.70;99.90
28552;DHT22;15752;49.560;8.708;2022-12-07T01:34:03;8.60;99.90
28552;DHT22;15752;49.560;8.708;2022-12-07T01:36:33;8.60;99.90
28552;DHT22;15752;49.560;8.708;2022-12-07T01:39:06;8.60;99.90
28552;DHT22;15752;49.560;8.708;2022-12-07T01:41:37;8.60;99.90
28552;DHT22;15752;49.560;8.708;2022-12-07T01:44:14;8.60;99.90
28552;DHT22;15752;49.560;8.708;2022-12-07T01:46:46;8.60;99.90
28552;DHT22;15752;49.560;8.708;2022-12-07T01:49:21;8.60;99.90
28552;DHT22;15752;49.560;8.708;2022-12-07T01:51:58;8.60;99.90
28552;DHT22;15752;49.560;8.708;2022-12-07T01:54:30;8.60;99.90
28552;DHT22;15752;49.560;8.708;2022-12-07T01:56:59;8.60;99.90
28552;DHT22;15752;49.560;8.708;2022-12-07T01:59:28;8.60;99.90
28552;DHT22;15752;49.560;8.708;2022-12-07T02:01:57;8.60;99.90
28552;DHT22;15752;49.560;8.708;2022-12-07T02:04:27;8.60;99.90
28552;DHT22;15752;49.560;8.708;2022-12-07T02:06:55;8.60;99.90
28552;DHT22;15752;49.560;8.708;2022-12-07T02:09:25;8.60;99.90
28552;DHT22;15752;49.560;8.708;2022-12-07T02:11:55;8.60;99.90
28552;DHT22;15752;49.560;8.708;2022-12-07T02:14:24;8.60;99.90
28552;DHT22;15752;49.560;8.708;2022-12-07T02:17:02;8.60;99.90
28552;DHT22;15752;49.560;8.708;2022-12-07T02:23:04;8.50;99.90
28552;DHT22;15752;49.560;8.708;2022-12-07T02:25:57;8.50;99.90
28552;DHT22;15752;49.560;8.708;2022-12-07T02:28:33;8.60;99.90
28552;DHT22;15752;49.560;8.708;2022-12-07T02:31:08;8.50;99.90
28552;DHT22;15752;49.560;8.708;2022-12-07T02:33:42;8.50;99.90
28552;DHT22;15752;49.560;8.708;2022-12-07T02:36:17;8.50;99.90
28552;DHT22;15752;49.560;8.708;2022-12-07T02:38:51;8.50;99.90
28552;DHT22;15752;49.560;8.708;2022-12-07T02:41:27;8.50;99.90
28552;DHT22;15752;49.560;8.708;2022-12-07T02:44:00;8.60;99.90
28552;DHT22;15752;49.560;8.708;2022-12-07T02:46:35;8.40;99.90
28552;DHT22;15752;49.560;8.708;2022-12-07T02:49:06;8.40;99.90
28552;DHT22;15752;49.560;8.708;2022-12-07T02:51:39;8.40;99.90
28552;DHT22;15752;49.560;8.708;2022-12-07T02:54:11;8.40;99.90
28552;DHT22;15752;49.560;8.708;2022-12-07T02:56:48;8.50;99.90
28552;DHT22;15752;49.560;8.708;2022-12-07T02:59:25;8.50;99.90
28552;DHT22;15752;49.560;8.708;2022-12-07T03:02:08;8.40;99.90
28552;DHT22;15752;49.560;8.708;2022-12-07T03:04:48;8.50;99.90
28552;DHT22;15752;49.560;8.708;2022-12-07T03:07:27;8.40;99.90
28552;DHT22;15752;49.560;8.708;2022-12-07T03:10:04;8.50;99.90
28552;DHT22;15752;49.560;8.708;2022-12-07T03:12:42;8.40;99.90
28552;DHT22;15752;49.560;8.708;2022-12-07T03:15:15;8.40;99.90
28552;DHT22;15752;49.560;8.708;2022-12-07T03:17:55;8.40;99.90
28552;DHT22;15752;49.560;8.708;2022-12-07T03:20:26;8.40;99.90
28552;DHT22;15752;49.560;8.708;2022-12-07T03:22:56;8.40;99.90
28552;DHT22;15752;49.560;8.708;2022-12-07T03:25:26;8.40;99.90
28552;DHT22;15752;49.560;8.708;2022-12-07T03:27:58;8.40;99.90
28552;DHT22;15752;49.560;8.708;2022-12-07T03:30:30;8.40;99.90
28552;DHT22;15752;49.560;8.708;2022-12-07T03:33:07;8.40;99.90
28552;DHT22;15752;49.560;8.708;2022-12-07T03:35:41;8.40;99.90
28552;DHT22;15752;49.560;8.708;2022-12-07T03:38:15;8.40;99.90
28552;DHT22;15752;49.560;8.708;2022-12-07T03:40:49;8.30;99.90
28552;DHT22;15752;49.560;8.708;2022-12-07T03:43:22;8.30;99.90
28552;DHT22;15752;49.560;8.708;2022-12-07T03:45:59;8.30;99.90
28552;DHT22;15752;49.560;8.708;2022-12-07T03:48:35;8.30;99.90
28552;DHT22;15752;49.560;8.708;2022-12-07T03:51:11;8.30;99.90
28552;DHT22;15752;49.560;8.708;2022-12-07T03:53:46;8.30;99.90
28552;DHT22;15752;49.560;8.708;2022-12-07T03:56:17;8.30;99.90
28552;DHT22;15752;49.560;8.708;2022-12-07T03:58:46;8.30;99.90
28552;DHT22;15752;49.560;8.708;2022-12-07T04:01:17;8.30;99.90
28552;DHT22;15752;49.560;8.708;2022-12-07T04:03:47;8.30;99.90
28552;DHT22;15752;49.560;8.708;2022-12-07T04:06:15;8.40;99.90
28552;DHT22;15752;49.560;8.708;2022-12-07T04:08:44;8.40;99.90
28552;DHT22;15752;49.560;8.708;2022-12-07T04:11:12;8.40;99.90
28552;DHT22;15752;49.560;8.708;2022-12-07T04:13:41;8.40;99.90
28552;DHT22;15752;49.560;8.708;2022-12-07T04:16:27;8.40;99.90
28552;DHT22;15752;49.560;8.708;2022-12-07T04:18:57;8.50;99.90
28552;DHT22;15752;49.560;8.708;2022-12-07T04:21:25;8.40;99.90
28552;DHT22;15752;49.560;8.708;2022-12-07T04:23:53;8.40;99.90
28552;DHT22;15752;49.560;8.708;2022-12-07T04:26:22;8.40;99.90
28552;DHT22;15752;49.560;8.708;2022-12-07T04:28:50;8.40;99.90
28552;DHT22;15752;49.560;8.708;2022-12-07T04:31:19;8.40;99.90
28552;DHT22;15752;49.560;8.708;2022-12-07T04:33:48;8.40;99.90
28552;DHT22;15752;49.560;8.708;2022-12-07T04:36:17;8.50;99.90
28552;DHT22;15752;49.560;8.708;2022-12-07T04:38:46;8.40;99.90
28552;DHT22;15752;49.560;8.708;2022-12-07T04:41:15;8.40;99.90
28552;DHT22;15752;49.560;8.708;2022-12-07T04:43:43;8.40;99.90
28552;DHT22;15752;49.560;8.708;2022-12-07T04:46:13;8.40;99.90
28552;DHT22;15752;49.560;8.708;2022-12-07T04:48:41;8.40;99.90
28552;DHT22;15752;49.560;8.708;2022-12-07T04:51:10;8.40;99.90
28552;DHT22;15752;49.560;8.708;2022-12-07T04:53:40;8.40;99.90
28552;DHT22;15752;49.560;8.708;2022-12-07T04:56:09;8.40;99.90
28552;DHT22;15752;49.560;8.708;2022-12-07T04:58:37;8.40;99.90
28552;DHT22;15752;49.560;8.708;2022-12-07T05:01:06;8.40;99.90
28552;DHT22;15752;49.560;8.708;2022-12-07T05:03:35;8.40;99.90
28552;DHT22;15752;49.560;8.708;2022-12-07T05:06:05;8.60;99.90
28552;DHT22;15752;49.560;8.708;2022-12-07T05:08:41;8.40;99.90
28552;DHT22;15752;49.560;8.708;2022-12-07T05:11:10;8.40;99.90
28552;DHT22;15752;49.560;8.708;2022-12-07T05:14:01;8.40;99.90
28552;DHT22;15752;49.560;8.708;2022-12-07T05:16:30;8.40;99.90
28552;DHT22;15752;49.560;8.708;2022-12-07T05:18:59;8.40;99.90
28552;DHT22;15752;49.560;8.708;2022-12-07T05:21:27;8.40;99.90
28552;DHT22;15752;49.560;8.708;2022-12-07T05:23:57;8.40;99.90
28552;DHT22;15752;49.560;8.708;2022-12-07T05:26:25;8.40;99.90
28552;DHT22;15752;49.560;8.708;2022-12-07T05:28:55;8.40;99.90
28552;DHT22;15752;49.560;8.708;2022-12-07T05:31:26;8.40;99.90
28552;DHT22;15752;49.560;8.708;2022-12-07T05:33:55;8.40;99.90
28552;DHT22;15752;49.560;8.708;2022-12-07T05:36:23;8.40;99.90
28552;DHT22;15752;49.560;8.708;2022-12-07T05:38:51;8.40;99.90
28552;DHT22;15752;49.560;8.708;2022-12-07T05:41:21;8.40;99.90
28552;DHT22;15752;49.560;8.708;2022-12-07T05:44:07;8.40;99.90
28552;DHT22;15752;49.560;8.708;2022-12-07T05:46:36;8.40;99.90
28552;DHT22;15752;49.560;8.708;2022-12-07T05:49:05;8.60;99.90
28552;DHT22;15752;49.560;8.708;2022-12-07T05:51:33;8.40;99.90
28552;DHT22;15752;49.560;8.708;2022-12-07T05:54:05;8.40;99.90
28552;DHT22;15752;49.560;8.708;2022-12-07T05:56:34;8.40;99.90
28552;DHT22;15752;49.560;8.708;2022-12-07T05:59:03;8.40;99.90
28552;DHT22;15752;49.560;8.708;2022-12-07T06:01:49;8.40;99.90
28552;DHT22;15752;49.560;8.708;2022-12-07T06:04:18;8.40;99.90
28552;DHT22;15752;49.560;8.708;2022-12-07T06:06:47;8.40;99.90
28552;DHT22;15752;49.560;8.708;2022-12-07T06:09:16;8.40;99.90
28552;DHT22;15752;49.560;8.708;2022-12-07T06:11:46;8.40;99.90
28552;DHT22;15752;49.560;8.708;2022-12-07T06:14:32;8.40;99.90
28552;DHT22;15752;49.560;8.708;2022-12-07T06:17:01;8.40;99.90
28552;DHT22;15752;49.560;8.708;2022-12-07T06:19:29;8.40;99.90
28552;DHT22;15752;49.560;8.708;2022-12-07T06:21:58;8.30;99.90
28552;DHT22;15752;49.560;8.708;2022-12-07T06:24:27;8.30;99.90
28552;DHT22;15752;49.560;8.708;2022-12-07T06:26:57;8.30;99.90
28552;DHT22;15752;49.560;8.708;2022-12-07T06:29:26;8.30;99.90
28552;DHT22;15752;49.560;8.708;2022-12-07T06:31:54;8.30;99.90
28552;DHT22;15752;49.560;8.708;2022-12-07T06:34:24;8.30;99.90
28552;DHT22;15752;49.560;8.708;2022-12-07T06:36:53;8.30;99.90
28552;DHT22;15752;49.560;8.708;2022-12-07T06:39:23;8.30;99.90
28552;DHT22;15752;49.560;8.708;2022-12-07T06:41:53;8.30;99.90
28552;DHT22;15752;49.560;8.708;2022-12-07T06:44:24;8.30;99.90
28552;DHT22;15752;49.560;8.708;2022-12-07T06:46:52;8.30;99.90
28552;DHT22;15752;49.560;8.708;2022-12-07T06:49:41;8.30;99.90
28552;DHT22;15752;49.560;8.708;2022-12-07T06:52:09;8.30;99.90
28552;DHT22;15752;49.560;8.708;2022-12-07T06:54:38;8.30;99.90
28552;DHT22;15752;49.560;8.708;2022-12-07T06:57:06;8.30;99.90
28552;DHT22;15752;49.560;8.708;2022-12-07T06:59:36;8.30;99.90
28552;DHT22;15752;49.560;8.708;2022-12-07T07:02:05;8.20;99.90
28552;DHT22;15752;49.560;8.708;2022-12-07T07:04:35;8.20;99.90
28552;DHT22;15752;49.560;8.708;2022-12-07T07:07:31;8.20;99.90
28552;DHT22;15752;49.560;8.708;2022-12-07T07:10:19;8.20;99.90
28552;DHT22;15752;49.560;8.708;2022-12-07T07:12:48;8.20;99.90
28552;DHT22;15752;49.560;8.708;2022-12-07T07:15:24;8.20;99.90
28552;DHT22;15752;49.560;8.708;2022-12-07T07:17:53;8.20;99.90
28552;DHT22;15752;49.560;8.708;2022-12-07T07:20:22;8.30;99.90
28552;DHT22;15752;49.560;8.708;2022-12-07T07:22:50;8.20;99.90
28552;DHT22;15752;49.560;8.708;2022-12-07T07:25:22;8.20;99.90
28552;DHT22;15752;49.560;8.708;2022-12-07T07:27:50;8.20;99.90
28552;DHT22;15752;49.560;8.708;2022-12-07T07:30:19;8.20;99.90
28552;DHT22;15752;49.560;8.708;2022-12-07T07:32:49;8.20;99.90
28552;DHT22;15752;49.560;8.708;2022-12-07T07:35:17;8.20;99.90
28552;DHT22;15752;49.560;8.708;2022-12-07T07:37:46;8.20;99.90
28552;DHT22;15752;49.560;8.708;2022-12-07T07:40:14;8.20;99.90
28552;DHT22;15752;49.560;8.708;2022-12-07T07:42:43;8.20;99.90
28552;DHT22;15752;49.560;8.708;2022-12-07T07:45:11;8.20;99.90
28552;DHT22;15752;49.560;8.708;2022-12-07T07:47:40;8.20;99.90
28552;DHT22;15752;49.560;8.708;2022-12-07T07:50:10;8.20;99.90
28552;DHT22;15752;49.560;8.708;2022-12-07T07:52:39;8.20;99.90
28552;DHT22;15752;49.560;8.708;2022-12-07T07:55:08;8.20;99.90
28552;DHT22;15752;49.560;8.708;2022-12-07T07:57:37;8.20;99.90
28552;DHT22;15752;49.560;8.708;2022-12-07T08:00:08;8.20;99.90
28552;DHT22;15752;49.560;8.708;2022-12-07T08:02:38;8.20;99.90
28552;DHT22;15752;49.560;8.708;2022-12-07T08:05:07;8.30;99.90
28552;DHT22;15752;49.560;8.708;2022-12-07T08:07:38;8.30;99.90
28552;DHT22;15752;49.560;8.708;2022-12-07T08:10:09;8.30;99.90
28552;DHT22;15752;49.560;8.708;2022-12-07T08:12:41;8.30;99.90
28552;DHT22;15752;49.560;8.708;2022-12-07T08:15:25;8.30;99.90
28552;DHT22;15752;49.560;8.708;2022-12-07T08:17:54;8.30;99.90
28552;DHT22;15752;49.560;8.708;2022-12-07T08:20:24;8.30;99.90
28552;DHT22;15752;49.560;8.708;2022-12-07T08:22:53;8.30;99.90
28552;DHT22;15752;49.560;8.708;2022-12-07T08:25:22;8.30;99.90
28552;DHT22;15752;49.560;8.708;2022-12-07T08:27:51;8.40;99.90
28552;DHT22;15752;49.560;8.708;2022-12-07T08:30:20;8.30;99.90
28552;DHT22;15752;49.560;8.708;2022-12-07T08:32:49;8.30;99.90
28552;DHT22;15752;49.560;8.708;2022-12-07T08:35:18;8.40;99.90
28552;DHT22;15752;49.560;8.708;2022-12-07T08:37:48;8.30;99.90
28552;DHT22;15752;49.560;8.708;2022-12-07T08:40:16;8.40;99.90
28552;DHT22;15752;49.560;8.708;2022-12-07T08:42:48;8.30;99.90
28552;DHT22;15752;49.560;8.708;2022-12-07T08:45:18;8.30;99.90
28552;DHT22;15752;49.560;8.708;2022-12-07T08:47:55;8.30;99.90
28552;DHT22;15752;49.560;8.708;2022-12-07T08:50:26;8.30;99.90
28552;DHT22;15752;49.560;8.708;2022-12-07T08:52:58;8.30;99.90
28552;DHT22;15752;49.560;8.708;2022-12-07T08:55:27;8.30;99.90
28552;DHT22;15752;49.560;8.708;2022-12-07T08:57:57;8.40;99.90
28552;DHT22;15752;49.560;8.708;2022-12-07T09:00:26;8.30;99.90
28552;DHT22;15752;49.560;8.708;2022-12-07T09:02:55;8.40;99.90
28552;DHT22;15752;49.560;8.708;2022-12-07T09:05:23;8.30;99.90
28552;DHT22;15752;49.560;8.708;2022-12-07T09:07:57;8.30;99.90
28552;DHT22;15752;49.560;8.708;2022-12-07T09:10:28;8.30;99.90
28552;DHT22;15752;49.560;8.708;2022-12-07T09:12:56;8.30;99.90
28552;DHT22;15752;49.560;8.708;2022-12-07T09:15:28;8.30;99.90
28552;DHT22;15752;49.560;8.708;2022-12-07T09:17:57;8.40;99.90
28552;DHT22;15752;49.560;8.708;2022-12-07T09:20:25;8.40;99.90
28552;DHT22;15752;49.560;8.708;2022-12-07T09:22:55;8.40;99.90
28552;DHT22;15752;49.560;8.708;2022-12-07T09:25:24;8.40;99.90
28552;DHT22;15752;49.560;8.708;2022-12-07T09:27:58;8.40;99.90
28552;DHT22;15752;49.560;8.708;2022-12-07T09:30:27;8.40;99.90
28552;DHT22;15752;49.560;8.708;2022-12-07T09:32:56;8.40;99.90
28552;DHT22;15752;49.560;8.708;2022-12-07T09:35:26;8.50;99.90
28552;DHT22;15752;49.560;8.708;2022-12-07T09:37:55;8.50;99.90
28552;DHT22;15752;49.560;8.708;2022-12-07T09:40:24;8.50;99.90
28552;DHT22;15752;49.560;8.708;2022-12-07T09:42:54;8.80;99.90
28552;DHT22;15752;49.560;8.708;2022-12-07T09:45:25;8.50;99.90
28552;DHT22;15752;49.560;8.708;2022-12-07T09:47:57;8.50;99.90
28552;DHT22;15752;49.560;8.708;2022-12-07T09:50:27;8.50;99.90
28552;DHT22;15752;49.560;8.708;2022-12-07T09:53:08;8.50;99.90
28552;DHT22;15752;49.560;8.708;2022-12-07T09:55:38;8.50;99.90
28552;DHT22;15752;49.560;8.708;2022-12-07T09:58:13;8.50;99.90
28552;DHT22;15752;49.560;8.708;2022-12-07T10:00:48;8.50;99.90
28552;DHT22;15752;49.560;8.708;2022-12-07T10:03:17;8.50;99.90
28552;DHT22;15752;49.560;8.708;2022-12-07T10:05:47;8.50;99.90
28552;DHT22;15752;49.560;8.708;2022-12-07T10:08:19;8.50;99.90
28552;DHT22;15752;49.560;8.708;2022-12-07T10:10:51;8.50;99.90
28552;DHT22;15752;49.560;8.708;2022-12-07T10:13:22;8.50;99.90
28552;DHT22;15752;49.560;8.708;2022-12-07T10:16:01;8.50;99.90
28552;DHT22;15752;49.560;8.708;2022-12-07T10:18:34;8.50;99.90
28552;DHT22;15752;49.560;8.708;2022-12-07T10:21:12;8.50;99.90
28552;DHT22;15752;49.560;8.708;2022-12-07T10:24:00;8.60;99.90
28552;DHT22;15752;49.560;8.708;2022-12-07T10:26:31;8.60;99.90
28552;DHT22;15752;49.560;8.708;2022-12-07T10:29:12;8.60;99.90
28552;DHT22;15752;49.560;8.708;2022-12-07T10:31:43;8.60;99.90
28552;DHT22;15752;49.560;8.708;2022-12-07T10:34:22;8.60;99.90
28552;DHT22;15752;49.560;8.708;2022-12-07T10:36:52;8.60;99.90
28552;DHT22;15752;49.560;8.708;2022-12-07T10:39:23;8.60;99.90
28552;DHT22;15752;49.560;8.708;2022-12-07T10:41:56;8.60;99.90
28552;DHT22;15752;49.560;8.708;2022-12-07T10:44:27;8.60;99.90
28552;DHT22;15752;49.560;8.708;2022-12-07T10:47:25;8.60;99.90
28552;DHT22;15752;49.560;8.708;2022-12-07T10:50:27;8.60;99.90
28552;DHT22;15752;49.560;8.708;2022-12-07T10:53:22;8.70;99.90
28552;DHT22;15752;49.560;8.708;2022-12-07T10:56:16;8.70;99.90
28552;DHT22;15752;49.560;8.708;2022-12-07T11:05:25;8.70;99.90
28552;DHT22;15752;49.560;8.708;2022-12-07T11:08:03;8.70;99.90
28552;DHT22;15752;49.560;8.708;2022-12-07T11:10:43;8.70;99.90
28552;DHT22;15752;49.560;8.708;2022-12-07T11:13:22;8.70;99.90
28552;DHT22;15752;49.560;8.708;2022-12-07T11:16:18;8.80;99.90
28552;DHT22;15752;49.560;8.708;2022-12-07T11:19:04;8.80;99.90
28552;DHT22;15752;49.560;8.708;2022-12-07T11:21:48;8.80;99.90
28552;DHT22;15752;49.560;8.708;2022-12-07T11:24:27;8.80;99.90
28552;DHT22;15752;49.560;8.708;2022-12-07T11:27:13;9.00;99.90
28552;DHT22;15752;49.560;8.708;2022-12-07T11:30:03;8.80;99.90
28552;DHT22;15752;49.560;8.708;2022-12-07T11:32:47;8.80;99.90
28552;DHT22;15752;49.560;8.708;2022-12-07T11:35:27;8.80;99.90
28552;DHT22;15752;49.560;8.708;2022-12-07T11:38:10;8.80;99.90
28552;DHT22;15752;49.560;8.708;2022-12-07T11:40:40;8.90;99.90
28552;DHT22;15752;49.560;8.708;2022-12-07T11:43:18;8.80;99.90
28552;DHT22;15752;49.560;8.708;2022-12-07T11:45:56;8.80;99.90
28552;DHT22;15752;49.560;8.708;2022-12-07T11:48:31;8.90;99.90
28552;DHT22;15752;49.560;8.708;2022-12-07T11:51:02;8.80;99.90
28552;DHT22;15752;49.560;8.708;2022-12-07T11:53:35;8.80;99.90
28552;DHT22;15752;49.560;8.708;2022-12-07T11:56:10;8.90;99.90
28552;DHT22;15752;49.560;8.708;2022-12-07T11:58:49;8.90;99.90
28552;DHT22;15752;49.560;8.708;2022-12-07T12:01:42;8.90;99.90
28552;DHT22;15752;49.560;8.708;2022-12-07T12:04:27;8.90;99.90
28552;DHT22;15752;49.560;8.708;2022-12-07T12:06:59;8.90;99.90
28552;DHT22;15752;49.560;8.708;2022-12-07T12:09:51;8.90;99.90
28552;DHT22;15752;49.560;8.708;2022-12-07T12:12:43;9.00;99.90
28552;DHT22;15752;49.560;8.708;2022-12-07T12:16:02;9.00;99.90
28552;DHT22;15752;49.560;8.708;2022-12-07T12:18:48;9.00;99.90
28552;DHT22;15752;49.560;8.708;2022-12-07T12:21:30;9.00;99.90
28552;DHT22;15752;49.560;8.708;2022-12-07T12:24:10;9.00;99.90
28552;DHT22;15752;49.560;8.708;2022-12-07T12:26:49;9.10;99.90
28552;DHT22;15752;49.560;8.708;2022-12-07T12:29:23;9.00;99.90
28552;DHT22;15752;49.560;8.708;2022-12-07T12:32:16;9.00;99.90
28552;DHT22;15752;49.560;8.708;2022-12-07T12:35:03;9.10;99.90
28552;DHT22;15752;49.560;8.708;2022-12-07T12:37:52;9.10;99.90
28552;DHT22;15752;49.560;8.708;2022-12-07T12:46:50;9.10;99.90
28552;DHT22;15752;49.560;8.708;2022-12-07T12:56:27;9.10;99.90
28552;DHT22;15752;49.560;8.708;2022-12-07T12:59:26;9.10;99.90
28552;DHT22;15752;49.560;8.708;2022-12-07T13:02:19;9.10;99.90
28552;DHT22;15752;49.560;8.708;2022-12-07T13:04:54;9.20;99.90
28552;DHT22;15752;49.560;8.708;2022-12-07T13:10:42;9.20;99.90
28552;DHT22;15752;49.560;8.708;2022-12-07T13:13:35;9.20;99.90
28552;DHT22;15752;49.560;8.708;2022-12-07T13:16:39;9.20;99.90
28552;DHT22;15752;49.560;8.708;2022-12-07T13:22:48;9.20;99.90
28552;DHT22;15752;49.560;8.708;2022-12-07T13:25:33;9.20;99.90
28552;DHT22;15752;49.560;8.708;2022-12-07T13:28:13;9.20;99.90
28552;DHT22;15752;49.560;8.708;2022-12-07T13:30:59;9.20;99.90
28552;DHT22;15752;49.560;8.708;2022-12-07T13:33:32;9.20;99.90
28552;DHT22;15752;49.560;8.708;2022-12-07T13:36:03;9.20;99.90
28552;DHT22;15752;49.560;8.708;2022-12-07T13:38:33;9.20;99.90
28552;DHT22;15752;49.560;8.708;2022-12-07T13:41:12;9.20;99.90
28552;DHT22;15752;49.560;8.708;2022-12-07T13:43:44;9.20;99.90
28552;DHT22;15752;49.560;8.708;2022-12-07T13:46:14;9.30;99.90
28552;DHT22;15752;49.560;8.708;2022-12-07T13:48:46;9.30;99.90
28552;DHT22;15752;49.560;8.708;2022-12-07T13:51:21;9.30;99.90
28552;DHT22;15752;49.560;8.708;2022-12-07T13:53:53;9.30;99.90
28552;DHT22;15752;49.560;8.708;2022-12-07T13:56:28;9.30;99.90
28552;DHT22;15752;49.560;8.708;2022-12-07T13:59:01;9.30;99.90
28552;DHT22;15752;49.560;8.708;2022-12-07T14:01:31;9.30;99.90
28552;DHT22;15752;49.560;8.708;2022-12-07T14:04:31;9.30;99.90
28552;DHT22;15752;49.560;8.708;2022-12-07T14:07:15;9.30;99.90
28552;DHT22;15752;49.560;8.708;2022-12-07T14:09:59;9.30;99.90
28552;DHT22;15752;49.560;8.708;2022-12-07T14:12:30;9.30;99.90
28552;DHT22;15752;49.560;8.708;2022-12-07T14:15:01;9.30;99.90
28552;DHT22;15752;49.560;8.708;2022-12-07T14:17:31;9.30;99.90
28552;DHT22;15752;49.560;8.708;2022-12-07T14:20:00;9.30;99.90
28552;DHT22;15752;49.560;8.708;2022-12-07T14:22:33;9.30;99.90
28552;DHT22;15752;49.560;8.708;2022-12-07T14:25:22;9.30;99.90
28552;DHT22;15752;49.560;8.708;2022-12-07T14:27:54;9.30;99.90
28552;DHT22;15752;49.560;8.708;2022-12-07T14:30:27;9.30;99.90
28552;DHT22;15752;49.560;8.708;2022-12-07T14:32:59;9.20;99.90
28552;DHT22;15752;49.560;8.708;2022-12-07T14:35:29;9.30;99.90
28552;DHT22;15752;49.560;8.708;2022-12-07T14:37:58;9.20;99.90
28552;DHT22;15752;49.560;8.708;2022-12-07T14:40:28;9.20;99.90
28552;DHT22;15752;49.560;8.708;2022-12-07T14:43:02;9.40;99.90
28552;DHT22;15752;49.560;8.708;2022-12-07T14:45:31;9.20;99.90
28552;DHT22;15752;49.560;8.708;2022-12-07T14:48:00;9.30;99.90
28552;DHT22;15752;49.560;8.708;2022-12-07T14:50:51;9.30;99.90
28552;DHT22;15752;49.560;8.708;2022-12-07T14:53:42;9.30;99.90
28552;DHT22;15752;49.560;8.708;2022-12-07T14:56:21;9.30;99.90
28552;DHT22;15752;49.560;8.708;2022-12-07T14:58:51;9.30;99.90
28552;DHT22;15752;49.560;8.708;2022-12-07T15:01:19;9.30;99.90
28552;DHT22;15752;49.560;8.708;2022-12-07T15:03:48;9.30;99.90
28552;DHT22;15752;49.560;8.708;2022-12-07T15:06:18;9.30;99.90
28552;DHT22;15752;49.560;8.708;2022-12-07T15:08:46;9.30;99.90
28552;DHT22;15752;49.560;8.708;2022-12-07T15:11:26;9.30;99.90
28552;DHT22;15752;49.560;8.708;2022-12-07T15:13:56;9.30;99.90
28552;DHT22;15752;49.560;8.708;2022-12-07T15:16:39;9.30;99.90
28552;DHT22;15752;49.560;8.708;2022-12-07T15:19:28;9.30;99.90
28552;DHT22;15752;49.560;8.708;2022-12-07T15:21:57;9.30;99.90
28552;DHT22;15752;49.560;8.708;2022-12-07T15:24:27;9.30;99.90
28552;DHT22;15752;49.560;8.708;2022-12-07T15:26:55;9.20;99.90
28552;DHT22;15752;49.560;8.708;2022-12-07T15:29:25;9.20;99.90
28552;DHT22;15752;49.560;8.708;2022-12-07T15:31:54;9.30;99.90
28552;DHT22;15752;49.560;8.708;2022-12-07T15:34:25;9.30;99.90
28552;DHT22;15752;49.560;8.708;2022-12-07T15:37:04;9.20;99.90
28552;DHT22;15752;49.560;8.708;2022-12-07T15:39:33;9.30;99.90
28552;DHT22;15752;49.560;8.708;2022-12-07T15:42:02;9.20;99.90
28552;DHT22;15752;49.560;8.708;2022-12-07T15:44:32;9.20;99.90
28552;DHT22;15752;49.560;8.708;2022-12-07T15:47:18;9.30;99.90
28552;DHT22;15752;49.560;8.708;2022-12-07T15:49:49;9.20;99.90
28552;DHT22;15752;49.560;8.708;2022-12-07T15:52:17;9.20;99.90
28552;DHT22;15752;49.560;8.708;2022-12-07T15:54:46;9.20;99.90
28552;DHT22;15752;49.560;8.708;2022-12-07T15:57:15;9.20;99.90
28552;DHT22;15752;49.560;8.708;2022-12-07T15:59:52;9.20;99.90
28552;DHT22;15752;49.560;8.708;2022-12-07T16:02:21;9.20;99.90
28552;DHT22;15752;49.560;8.708;2022-12-07T16:04:51;9.20;99.90
28552;DHT22;15752;49.560;8.708;2022-12-07T16:07:21;9.20;99.90
28552;DHT22;15752;49.560;8.708;2022-12-07T16:09:49;9.20;99.90
28552;DHT22;15752;49.560;8.708;2022-12-07T16:12:18;9.20;99.90
28552;DHT22;15752;49.560;8.708;2022-12-07T16:14:46;9.20;99.90
28552;DHT22;15752;49.560;8.708;2022-12-07T16:17:16;9.20;99.90
28552;DHT22;15752;49.560;8.708;2022-12-07T16:19:45;9.20;99.90
28552;DHT22;15752;49.560;8.708;2022-12-07T16:22:13;9.20;99.90
28552;DHT22;15752;49.560;8.708;2022-12-07T16:24:42;9.30;99.90
28552;DHT22;15752;49.560;8.708;2022-12-07T16:27:10;9.20;99.90
28552;DHT22;15752;49.560;8.708;2022-12-07T16:29:39;9.20;99.90
28552;DHT22;15752;49.560;8.708;2022-12-07T16:32:07;9.30;99.90
28552;DHT22;15752;49.560;8.708;2022-12-07T16:34:37;9.20;99.90
28552;DHT22;15752;49.560;8.708;2022-12-07T16:37:07;9.20;99.90
28552;DHT22;15752;49.560;8.708;2022-12-07T16:39:36;9.20;99.90
28552;DHT22;15752;49.560;8.708;2022-12-07T16:42:04;9.10;99.90
28552;DHT22;15752;49.560;8.708;2022-12-07T16:44:34;9.10;99.90
28552;DHT22;15752;49.560;8.708;2022-12-07T16:47:02;9.10;99.90
28552;DHT22;15752;49.560;8.708;2022-12-07T16:49:31;9.10;99.90
28552;DHT22;15752;49.560;8.708;2022-12-07T16:52:01;9.10;99.90
28552;DHT22;15752;49.560;8.708;2022-12-07T16:54:45;9.10;99.90